Morning Charlotte — 3EMA2 — position and weather

sailwx.info

Track history (hours):
 
Tides and Currents Weather Stations Pressure Air Temp Water Temp Dewpoint Dewpoint Depression Visibility Wind Speed Wind Dir Waves Ship Positions

Morning Charlotte

Last reported at 2014-Oct-24 01:04 UTC. Time now 2014-Oct-24 07:00 UTC.
Position N 34°01' E 130°51'.

Length 200 m; draft 8.7 m.

Type: Cargo ship. MMSI: 357275000.

Date/timePositionNaut miles runAvg speedWind from/ knotsBaromVisibWave heightAir tempDewpointWater temp
2014-Oct-24 01:04N 34°01' E 130°51'5 7.1
2014-Oct-24 00:24N 34°04' E 130°47'  
2014-Oct-18 20:25N 34°22' E 124°13'3015.9
2014-Oct-18 18:33N 34°37' E 123°42'8416.7
2014-Oct-18 13:30N 35°21' E 122°13'1616.8
2014-Oct-18 12:32N 35°28' E 121°56'1816.8
2014-Oct-18 11:27N 35°40' E 121°38'1717.2
2014-Oct-18 10:29N 35°48' E 121°21'1212.2
2014-Oct-18 09:32N 35°55' E 121°09'1414.1
2014-Oct-18 08:31N 35°56' E 120°51'101 5.0
2014-Oct-17 12:33N 36°34' E 122°47'1715.9
2014-Oct-17 11:30N 36°40' E 123°06'8512.1
2014-Oct-17 04:29N 38°00' E 122°31'2017.0
2014-Oct-17 03:18N 37°55' E 122°06'1317.1
2014-Oct-17 02:33N 37°50' E 121°51'1716.9
2014-Oct-17 01:33N 37°43' E 121°31'1010.2
2014-Oct-17 00:33N 37°35' E 121°25'2 1.7
2014-Oct-16 23:31N 37°33' E 121°23'0 0.0
2014-Oct-16 22:28N 37°33' E 121°23'0 0.0
2014-Oct-16 21:28N 37°33' E 121°23'0 0.0
2014-Oct-16 20:31N 37°33' E 121°23'0 0.0
2014-Oct-16 19:28N 37°33' E 121°23'0 0.0
2014-Oct-16 18:31N 37°33' E 121°23'0 0.0
2014-Oct-16 17:31N 37°33' E 121°23'0 0.0
2014-Oct-16 16:31N 37°33' E 121°23'0 0.0
2014-Oct-16 15:31N 37°33' E 121°23'0 0.0
2014-Oct-16 14:31N 37°33' E 121°23'0 0.0
2014-Oct-16 13:25N 37°33' E 121°23'0 0.0
2014-Oct-16 12:31N 37°33' E 121°23'0 0.0
2014-Oct-16 11:31N 37°33' E 121°23'0 0.0
2014-Oct-16 10:31N 37°33' E 121°23'0 0.0
2014-Oct-16 09:28N 37°33' E 121°23'0 0.1
2014-Oct-16 08:33N 37°33' E 121°23'5 5.0
2014-Oct-16 07:33N 37°37' E 121°27'8 8.5
2014-Oct-16 06:33N 37°41' E 121°37'3 2.7
2014-Oct-16 05:33N 37°44' E 121°38'0 0.4
2014-Oct-16 04:33N 37°43' E 121°38'5 4.6
2014-Oct-16 03:33N 37°46' E 121°42'1 0.6
2014-Oct-16 02:33N 37°47' E 121°42'0 0.3
2014-Oct-16 01:33N 37°47' E 121°42'1211.3
2014-Oct-16 00:30N 37°53' E 121°55'2215.1
2014-Oct-15 23:03N 37°55' E 122°23'  
Track history (hours):
 
Tides and Currents Weather Stations Pressure Air Temp Water Temp Dewpoint Dewpoint Depression Visibility Wind Speed Wind Dir Waves Ship Positions

Morning Charlotte

Last reported at 2014-Oct-24 01:04 UTC. Time now 2014-Oct-24 07:00 UTC.
Position N 34°01' E 130°51'.

Length 200 m; draft 8.7 m.

Type: Cargo ship. MMSI: 357275000.

Date/timePositionNaut miles runAvg speedWind from/ knotsBaromVisibWave heightAir tempDewpointWater temp
2014-Oct-24 01:04N 34°01' E 130°51'5 7.1
2014-Oct-24 00:24N 34°04' E 130°47'  
2014-Oct-18 20:25N 34°22' E 124°13'3015.9
2014-Oct-18 18:33N 34°37' E 123°42'8416.7
2014-Oct-18 13:30N 35°21' E 122°13'1616.8
2014-Oct-18 12:32N 35°28' E 121°56'1816.8
2014-Oct-18 11:27N 35°40' E 121°38'1717.2
2014-Oct-18 10:29N 35°48' E 121°21'1212.2
2014-Oct-18 09:32N 35°55' E 121°09'1414.1
2014-Oct-18 08:31N 35°56' E 120°51'101 5.0
2014-Oct-17 12:33N 36°34' E 122°47'1715.9
2014-Oct-17 11:30N 36°40' E 123°06'8512.1
2014-Oct-17 04:29N 38°00' E 122°31'2017.0
2014-Oct-17 03:18N 37°55' E 122°06'1317.1
2014-Oct-17 02:33N 37°50' E 121°51'1716.9
2014-Oct-17 01:33N 37°43' E 121°31'1010.2
2014-Oct-17 00:33N 37°35' E 121°25'2 1.7
2014-Oct-16 23:31N 37°33' E 121°23'0 0.0
2014-Oct-16 22:28N 37°33' E 121°23'0 0.0
2014-Oct-16 21:28N 37°33' E 121°23'0 0.0
2014-Oct-16 20:31N 37°33' E 121°23'0 0.0
2014-Oct-16 19:28N 37°33' E 121°23'0 0.0
2014-Oct-16 18:31N 37°33' E 121°23'0 0.0
2014-Oct-16 17:31N 37°33' E 121°23'0 0.0
2014-Oct-16 16:31N 37°33' E 121°23'0 0.0
2014-Oct-16 15:31N 37°33' E 121°23'0 0.0
2014-Oct-16 14:31N 37°33' E 121°23'0 0.0
2014-Oct-16 13:25N 37°33' E 121°23'0 0.0
2014-Oct-16 12:31N 37°33' E 121°23'0 0.0
2014-Oct-16 11:31N 37°33' E 121°23'0 0.0
2014-Oct-16 10:31N 37°33' E 121°23'0 0.0
2014-Oct-16 09:28N 37°33' E 121°23'0 0.1
2014-Oct-16 08:33N 37°33' E 121°23'5 5.0
2014-Oct-16 07:33N 37°37' E 121°27'8 8.5
2014-Oct-16 06:33N 37°41' E 121°37'3 2.7
2014-Oct-16 05:33N 37°44' E 121°38'0 0.4
2014-Oct-16 04:33N 37°43' E 121°38'5 4.6
2014-Oct-16 03:33N 37°46' E 121°42'1 0.6
2014-Oct-16 02:33N 37°47' E 121°42'0 0.3
2014-Oct-16 01:33N 37°47' E 121°42'1211.3
2014-Oct-16 00:30N 37°53' E 121°55'2215.1
2014-Oct-15 23:03N 37°55' E 122°23'  

Dump ship's entire track history